sensor_id;sensor_type;location;lat;lon;timestamp;temperature;humidity
11894;DHT22;6006;49.696;8.662;2024-02-23T00:00:07;8.20;99.90
11894;DHT22;6006;49.696;8.662;2024-02-23T00:02:36;8.20;99.90
11894;DHT22;6006;49.696;8.662;2024-02-23T00:05:03;8.20;99.90
11894;DHT22;6006;49.696;8.662;2024-02-23T00:07:32;8.20;99.90
11894;DHT22;6006;49.696;8.662;2024-02-23T00:09:58;8.20;99.90
11894;DHT22;6006;49.696;8.662;2024-02-23T00:12:25;8.20;99.90
11894;DHT22;6006;49.696;8.662;2024-02-23T00:14:52;8.30;99.90
11894;DHT22;6006;49.696;8.662;2024-02-23T00:17:19;8.20;99.90
11894;DHT22;6006;49.696;8.662;2024-02-23T00:19:47;8.20;99.90
11894;DHT22;6006;49.696;8.662;2024-02-23T00:22:14;8.20;99.90
11894;DHT22;6006;49.696;8.662;2024-02-23T00:24:43;8.10;99.90
11894;DHT22;6006;49.696;8.662;2024-02-23T00:27:09;8.10;99.90
11894;DHT22;6006;49.696;8.662;2024-02-23T00:29:36;8.00;99.90
11894;DHT22;6006;49.696;8.662;2024-02-23T00:32:04;8.10;99.90
11894;DHT22;6006;49.696;8.662;2024-02-23T00:34:31;8.00;99.90
11894;DHT22;6006;49.696;8.662;2024-02-23T00:36:58;7.90;99.90
11894;DHT22;6006;49.696;8.662;2024-02-23T00:39:24;7.80;99.90
11894;DHT22;6006;49.696;8.662;2024-02-23T00:41:53;7.70;99.90
11894;DHT22;6006;49.696;8.662;2024-02-23T00:44:19;7.60;99.90
11894;DHT22;6006;49.696;8.662;2024-02-23T00:46:46;7.40;99.90
11894;DHT22;6006;49.696;8.662;2024-02-23T00:49:13;7.40;99.90
11894;DHT22;6006;49.696;8.662;2024-02-23T00:51:40;7.40;99.90
11894;DHT22;6006;49.696;8.662;2024-02-23T00:54:07;7.20;99.90
11894;DHT22;6006;49.696;8.662;2024-02-23T00:56:34;7.10;99.90
11894;DHT22;6006;49.696;8.662;2024-02-23T00:59:02;7.10;99.90
11894;DHT22;6006;49.696;8.662;2024-02-23T01:01:29;7.00;99.90
11894;DHT22;6006;49.696;8.662;2024-02-23T01:03:57;7.00;99.90
11894;DHT22;6006;49.696;8.662;2024-02-23T01:06:24;7.00;99.90
11894;DHT22;6006;49.696;8.662;2024-02-23T01:08:53;6.90;99.90
11894;DHT22;6006;49.696;8.662;2024-02-23T01:11:20;6.90;99.90
11894;DHT22;6006;49.696;8.662;2024-02-23T01:13:46;6.80;1.00
11894;DHT22;6006;49.696;8.662;2024-02-23T01:16:15;6.70;1.00
11894;DHT22;6006;49.696;8.662;2024-02-23T01:18:42;6.70;1.00
11894;DHT22;6006;49.696;8.662;2024-02-23T01:21:09;6.90;1.00
11894;DHT22;6006;49.696;8.662;2024-02-23T01:23:36;7.00;99.90
11894;DHT22;6006;49.696;8.662;2024-02-23T01:26:03;7.30;99.90
11894;DHT22;6006;49.696;8.662;2024-02-23T01:28:30;7.30;99.90
11894;DHT22;6006;49.696;8.662;2024-02-23T01:30:56;7.30;99.90
11894;DHT22;6006;49.696;8.662;2024-02-23T01:33:25;7.30;99.90
11894;DHT22;6006;49.696;8.662;2024-02-23T01:35:51;7.30;99.90
11894;DHT22;6006;49.696;8.662;2024-02-23T01:38:18;7.30;99.90
11894;DHT22;6006;49.696;8.662;2024-02-23T01:40:46;7.40;99.90
11894;DHT22;6006;49.696;8.662;2024-02-23T01:43:13;7.50;99.90
11894;DHT22;6006;49.696;8.662;2024-02-23T01:45:40;7.40;99.90
11894;DHT22;6006;49.696;8.662;2024-02-23T01:48:07;7.40;99.90
11894;DHT22;6006;49.696;8.662;2024-02-23T01:50:36;7.30;99.90
11894;DHT22;6006;49.696;8.662;2024-02-23T01:53:04;7.20;99.90
11894;DHT22;6006;49.696;8.662;2024-02-23T01:55:32;7.00;99.90
11894;DHT22;6006;49.696;8.662;2024-02-23T01:58:00;6.90;99.90
11894;DHT22;6006;49.696;8.662;2024-02-23T02:00:27;6.60;99.90
11894;DHT22;6006;49.696;8.662;2024-02-23T02:02:56;6.50;99.90
11894;DHT22;6006;49.696;8.662;2024-02-23T02:05:24;6.40;99.90
11894;DHT22;6006;49.696;8.662;2024-02-23T02:07:53;6.30;99.90
11894;DHT22;6006;49.696;8.662;2024-02-23T02:10:25;6.20;99.90
11894;DHT22;6006;49.696;8.662;2024-02-23T02:12:52;6.20;99.90
11894;DHT22;6006;49.696;8.662;2024-02-23T02:15:19;6.20;99.90
11894;DHT22;6006;49.696;8.662;2024-02-23T02:17:47;6.10;99.90
11894;DHT22;6006;49.696;8.662;2024-02-23T02:20:14;6.10;99.90
11894;DHT22;6006;49.696;8.662;2024-02-23T02:22:41;6.00;99.90
11894;DHT22;6006;49.696;8.662;2024-02-23T02:25:09;6.00;99.90
11894;DHT22;6006;49.696;8.662;2024-02-23T02:27:36;5.90;99.90
11894;DHT22;6006;49.696;8.662;2024-02-23T02:30:04;5.90;99.90
11894;DHT22;6006;49.696;8.662;2024-02-23T02:32:31;5.80;99.90
11894;DHT22;6006;49.696;8.662;2024-02-23T02:34:58;5.80;99.90
11894;DHT22;6006;49.696;8.662;2024-02-23T02:37:25;5.80;99.90
11894;DHT22;6006;49.696;8.662;2024-02-23T02:39:51;5.70;99.90
11894;DHT22;6006;49.696;8.662;2024-02-23T02:42:20;5.60;99.90
11894;DHT22;6006;49.696;8.662;2024-02-23T02:44:46;5.60;99.90
11894;DHT22;6006;49.696;8.662;2024-02-23T02:47:13;5.50;99.90
11894;DHT22;6006;49.696;8.662;2024-02-23T02:49:40;5.50;1.00
11894;DHT22;6006;49.696;8.662;2024-02-23T02:52:07;5.40;1.00
11894;DHT22;6006;49.696;8.662;2024-02-23T02:54:34;5.40;1.00
11894;DHT22;6006;49.696;8.662;2024-02-23T02:57:01;5.30;1.00
11894;DHT22;6006;49.696;8.662;2024-02-23T02:59:33;5.30;1.00
11894;DHT22;6006;49.696;8.662;2024-02-23T03:02:00;5.30;1.00
11894;DHT22;6006;49.696;8.662;2024-02-23T03:04:27;5.30;1.00
11894;DHT22;6006;49.696;8.662;2024-02-23T03:06:54;5.30;1.00
11894;DHT22;6006;49.696;8.662;2024-02-23T03:09:20;5.20;1.00
11894;DHT22;6006;49.696;8.662;2024-02-23T03:11:47;5.30;1.00
11894;DHT22;6006;49.696;8.662;2024-02-23T03:14:14;5.30;1.00
11894;DHT22;6006;49.696;8.662;2024-02-23T03:16:45;5.20;1.00
11894;DHT22;6006;49.696;8.662;2024-02-23T03:19:13;5.20;1.00
11894;DHT22;6006;49.696;8.662;2024-02-23T03:21:41;5.30;1.00
11894;DHT22;6006;49.696;8.662;2024-02-23T03:24:07;5.40;1.00
11894;DHT22;6006;49.696;8.662;2024-02-23T03:26:34;5.40;1.00
11894;DHT22;6006;49.696;8.662;2024-02-23T03:29:01;5.50;1.00
11894;DHT22;6006;49.696;8.662;2024-02-23T03:31:28;5.50;1.00
11894;DHT22;6006;49.696;8.662;2024-02-23T03:33:56;5.60;1.00
11894;DHT22;6006;49.696;8.662;2024-02-23T03:36:23;5.70;1.00
11894;DHT22;6006;49.696;8.662;2024-02-23T03:38:50;5.70;1.00
11894;DHT22;6006;49.696;8.662;2024-02-23T03:41:18;5.60;1.00
11894;DHT22;6006;49.696;8.662;2024-02-23T03:43:44;5.60;1.00
11894;DHT22;6006;49.696;8.662;2024-02-23T03:46:11;5.70;1.00
11894;DHT22;6006;49.696;8.662;2024-02-23T03:48:40;5.80;1.00
11894;DHT22;6006;49.696;8.662;2024-02-23T03:51:09;5.80;1.00
11894;DHT22;6006;49.696;8.662;2024-02-23T03:53:36;5.90;1.00
11894;DHT22;6006;49.696;8.662;2024-02-23T03:56:03;5.90;1.00
11894;DHT22;6006;49.696;8.662;2024-02-23T03:58:30;5.90;1.00
11894;DHT22;6006;49.696;8.662;2024-02-23T04:00:57;5.90;1.00
11894;DHT22;6006;49.696;8.662;2024-02-23T04:03:24;5.90;1.00
11894;DHT22;6006;49.696;8.662;2024-02-23T04:05:51;5.80;1.00
11894;DHT22;6006;49.696;8.662;2024-02-23T04:08:19;5.90;1.00
11894;DHT22;6006;49.696;8.662;2024-02-23T04:10:46;5.90;1.00
11894;DHT22;6006;49.696;8.662;2024-02-23T04:13:13;6.00;1.00
11894;DHT22;6006;49.696;8.662;2024-02-23T04:15:40;6.00;1.00
11894;DHT22;6006;49.696;8.662;2024-02-23T04:18:07;6.00;1.00
11894;DHT22;6006;49.696;8.662;2024-02-23T04:20:34;6.00;1.00
11894;DHT22;6006;49.696;8.662;2024-02-23T04:23:00;6.00;1.00
11894;DHT22;6006;49.696;8.662;2024-02-23T04:25:29;6.00;1.00
11894;DHT22;6006;49.696;8.662;2024-02-23T04:27:56;6.00;1.00
11894;DHT22;6006;49.696;8.662;2024-02-23T04:30:22;5.90;1.00
11894;DHT22;6006;49.696;8.662;2024-02-23T04:32:49;6.00;1.00
11894;DHT22;6006;49.696;8.662;2024-02-23T04:35:16;6.00;1.00
11894;DHT22;6006;49.696;8.662;2024-02-23T04:37:43;6.00;1.00
11894;DHT22;6006;49.696;8.662;2024-02-23T04:40:11;6.00;1.00
11894;DHT22;6006;49.696;8.662;2024-02-23T04:42:39;6.00;1.00
11894;DHT22;6006;49.696;8.662;2024-02-23T04:45:07;6.00;1.00
11894;DHT22;6006;49.696;8.662;2024-02-23T04:47:35;6.00;1.00
11894;DHT22;6006;49.696;8.662;2024-02-23T04:50:01;6.00;1.00
11894;DHT22;6006;49.696;8.662;2024-02-23T04:52:29;6.00;1.00
11894;DHT22;6006;49.696;8.662;2024-02-23T04:54:56;6.00;1.00
11894;DHT22;6006;49.696;8.662;2024-02-23T04:57:22;6.00;1.00
11894;DHT22;6006;49.696;8.662;2024-02-23T04:59:51;6.00;1.00
11894;DHT22;6006;49.696;8.662;2024-02-23T05:02:17;6.00;1.00
11894;DHT22;6006;49.696;8.662;2024-02-23T05:04:44;6.00;1.00
11894;DHT22;6006;49.696;8.662;2024-02-23T05:07:12;6.00;99.90
11894;DHT22;6006;49.696;8.662;2024-02-23T05:09:38;6.00;1.00
11894;DHT22;6006;49.696;8.662;2024-02-23T05:12:07;5.90;99.90
11894;DHT22;6006;49.696;8.662;2024-02-23T05:14:34;5.90;99.90
11894;DHT22;6006;49.696;8.662;2024-02-23T05:17:02;6.00;99.90
11894;DHT22;6006;49.696;8.662;2024-02-23T05:19:29;5.90;99.90
11894;DHT22;6006;49.696;8.662;2024-02-23T05:21:56;5.90;1.00
11894;DHT22;6006;49.696;8.662;2024-02-23T05:24:23;5.90;99.90
11894;DHT22;6006;49.696;8.662;2024-02-23T05:26:51;5.90;99.90
11894;DHT22;6006;49.696;8.662;2024-02-23T05:29:17;5.80;1.00
11894;DHT22;6006;49.696;8.662;2024-02-23T05:31:48;5.90;99.90
11894;DHT22;6006;49.696;8.662;2024-02-23T05:34:17;5.80;99.90
11894;DHT22;6006;49.696;8.662;2024-02-23T05:36:44;5.90;99.90
11894;DHT22;6006;49.696;8.662;2024-02-23T05:39:12;5.80;99.90
11894;DHT22;6006;49.696;8.662;2024-02-23T05:41:41;5.90;99.90
11894;DHT22;6006;49.696;8.662;2024-02-23T05:44:08;5.80;99.90
11894;DHT22;6006;49.696;8.662;2024-02-23T05:46:35;5.90;99.90
11894;DHT22;6006;49.696;8.662;2024-02-23T05:49:03;5.80;99.90
11894;DHT22;6006;49.696;8.662;2024-02-23T05:51:33;5.80;99.90
11894;DHT22;6006;49.696;8.662;2024-02-23T05:54:00;5.80;99.90
11894;DHT22;6006;49.696;8.662;2024-02-23T05:56:27;5.80;99.90
11894;DHT22;6006;49.696;8.662;2024-02-23T05:58:54;5.90;99.90
11894;DHT22;6006;49.696;8.662;2024-02-23T06:01:21;5.90;99.90
11894;DHT22;6006;49.696;8.662;2024-02-23T06:03:48;5.90;99.90
11894;DHT22;6006;49.696;8.662;2024-02-23T06:06:15;5.80;99.90
11894;DHT22;6006;49.696;8.662;2024-02-23T06:08:43;5.90;99.90
11894;DHT22;6006;49.696;8.662;2024-02-23T06:11:10;5.80;99.90
11894;DHT22;6006;49.696;8.662;2024-02-23T06:13:37;5.80;99.90
11894;DHT22;6006;49.696;8.662;2024-02-23T06:16:04;5.80;99.90
11894;DHT22;6006;49.696;8.662;2024-02-23T06:18:31;5.90;99.90
11894;DHT22;6006;49.696;8.662;2024-02-23T06:20:58;5.90;99.90
11894;DHT22;6006;49.696;8.662;2024-02-23T06:23:25;5.90;99.90
11894;DHT22;6006;49.696;8.662;2024-02-23T06:25:53;5.80;99.90
11894;DHT22;6006;49.696;8.662;2024-02-23T06:28:20;5.80;99.90
11894;DHT22;6006;49.696;8.662;2024-02-23T06:30:47;5.90;99.90
11894;DHT22;6006;49.696;8.662;2024-02-23T06:33:13;5.80;99.90
11894;DHT22;6006;49.696;8.662;2024-02-23T06:35:40;5.80;99.90
11894;DHT22;6006;49.696;8.662;2024-02-23T06:38:07;5.90;99.90
11894;DHT22;6006;49.696;8.662;2024-02-23T06:40:35;5.80;99.90
11894;DHT22;6006;49.696;8.662;2024-02-23T06:43:03;5.80;1.00
11894;DHT22;6006;49.696;8.662;2024-02-23T06:45:30;5.80;1.00
11894;DHT22;6006;49.696;8.662;2024-02-23T06:47:57;5.80;1.00
11894;DHT22;6006;49.696;8.662;2024-02-23T06:50:24;5.70;1.00
11894;DHT22;6006;49.696;8.662;2024-02-23T06:52:51;5.70;1.00
11894;DHT22;6006;49.696;8.662;2024-02-23T06:55:18;5.70;1.00
11894;DHT22;6006;49.696;8.662;2024-02-23T06:57:45;5.60;1.00
11894;DHT22;6006;49.696;8.662;2024-02-23T07:00:14;5.70;1.00
11894;DHT22;6006;49.696;8.662;2024-02-23T07:02:41;5.60;1.00
11894;DHT22;6006;49.696;8.662;2024-02-23T07:05:08;5.60;1.00
11894;DHT22;6006;49.696;8.662;2024-02-23T07:07:36;5.60;1.00
11894;DHT22;6006;49.696;8.662;2024-02-23T07:10:03;5.80;1.00
11894;DHT22;6006;49.696;8.662;2024-02-23T07:12:30;5.70;1.00
11894;DHT22;6006;49.696;8.662;2024-02-23T07:14:57;5.70;1.00
11894;DHT22;6006;49.696;8.662;2024-02-23T07:17:25;5.60;1.00
11894;DHT22;6006;49.696;8.662;2024-02-23T07:19:52;5.60;1.00
11894;DHT22;6006;49.696;8.662;2024-02-23T07:22:19;5.50;1.00
11894;DHT22;6006;49.696;8.662;2024-02-23T07:24:46;5.50;1.00
11894;DHT22;6006;49.696;8.662;2024-02-23T07:27:13;5.50;1.00
11894;DHT22;6006;49.696;8.662;2024-02-23T07:29:40;5.50;1.00
11894;DHT22;6006;49.696;8.662;2024-02-23T07:32:06;5.50;1.00
11894;DHT22;6006;49.696;8.662;2024-02-23T07:34:35;5.50;1.00
11894;DHT22;6006;49.696;8.662;2024-02-23T07:37:02;5.40;1.00
11894;DHT22;6006;49.696;8.662;2024-02-23T07:39:29;5.40;1.00
11894;DHT22;6006;49.696;8.662;2024-02-23T07:41:56;5.40;1.00
11894;DHT22;6006;49.696;8.662;2024-02-23T07:44:23;5.40;1.00
11894;DHT22;6006;49.696;8.662;2024-02-23T07:46:51;5.40;1.00
11894;DHT22;6006;49.696;8.662;2024-02-23T07:49:20;5.40;1.00
11894;DHT22;6006;49.696;8.662;2024-02-23T07:51:49;5.40;1.00
11894;DHT22;6006;49.696;8.662;2024-02-23T07:54:16;5.50;1.00
11894;DHT22;6006;49.696;8.662;2024-02-23T07:56:43;5.50;1.00
11894;DHT22;6006;49.696;8.662;2024-02-23T07:59:10;5.50;1.00
11894;DHT22;6006;49.696;8.662;2024-02-23T08:01:37;5.60;99.90
11894;DHT22;6006;49.696;8.662;2024-02-23T08:04:05;5.70;99.90
11894;DHT22;6006;49.696;8.662;2024-02-23T08:06:32;5.70;99.90
11894;DHT22;6006;49.696;8.662;2024-02-23T08:09:01;5.70;99.90
11894;DHT22;6006;49.696;8.662;2024-02-23T08:11:28;5.90;99.90
11894;DHT22;6006;49.696;8.662;2024-02-23T08:13:55;6.00;99.90
11894;DHT22;6006;49.696;8.662;2024-02-23T08:16:21;6.10;99.90
11894;DHT22;6006;49.696;8.662;2024-02-23T08:18:48;6.20;99.90
11894;DHT22;6006;49.696;8.662;2024-02-23T08:21:15;6.20;99.90
11894;DHT22;6006;49.696;8.662;2024-02-23T08:23:42;6.30;99.90
11894;DHT22;6006;49.696;8.662;2024-02-23T08:26:10;6.40;99.90
11894;DHT22;6006;49.696;8.662;2024-02-23T08:28:37;6.50;99.90
11894;DHT22;6006;49.696;8.662;2024-02-23T08:31:04;6.60;99.90
11894;DHT22;6006;49.696;8.662;2024-02-23T08:33:31;6.60;99.90
11894;DHT22;6006;49.696;8.662;2024-02-23T08:35:58;6.60;99.90
11894;DHT22;6006;49.696;8.662;2024-02-23T08:38:25;6.80;99.90
11894;DHT22;6006;49.696;8.662;2024-02-23T08:40:52;6.90;99.90
11894;DHT22;6006;49.696;8.662;2024-02-23T08:43:24;6.80;99.90
11894;DHT22;6006;49.696;8.662;2024-02-23T08:45:53;6.90;99.90
11894;DHT22;6006;49.696;8.662;2024-02-23T08:48:20;7.00;99.90
11894;DHT22;6006;49.696;8.662;2024-02-23T08:50:47;6.90;99.90
11894;DHT22;6006;49.696;8.662;2024-02-23T08:53:14;6.80;99.90
11894;DHT22;6006;49.696;8.662;2024-02-23T08:55:41;6.80;99.90
11894;DHT22;6006;49.696;8.662;2024-02-23T08:58:07;6.90;99.90
11894;DHT22;6006;49.696;8.662;2024-02-23T09:00:36;7.00;99.90
11894;DHT22;6006;49.696;8.662;2024-02-23T09:03:04;7.20;99.90
11894;DHT22;6006;49.696;8.662;2024-02-23T09:05:31;7.30;99.90
11894;DHT22;6006;49.696;8.662;2024-02-23T09:07:58;7.40;99.90
11894;DHT22;6006;49.696;8.662;2024-02-23T09:10:24;7.50;99.90
11894;DHT22;6006;49.696;8.662;2024-02-23T09:12:51;7.50;99.90
11894;DHT22;6006;49.696;8.662;2024-02-23T09:15:18;7.40;99.90
11894;DHT22;6006;49.696;8.662;2024-02-23T09:17:46;7.60;99.90
11894;DHT22;6006;49.696;8.662;2024-02-23T09:20:13;7.70;99.90
11894;DHT22;6006;49.696;8.662;2024-02-23T09:22:40;7.70;99.90
11894;DHT22;6006;49.696;8.662;2024-02-23T09:25:07;7.70;99.90
11894;DHT22;6006;49.696;8.662;2024-02-23T09:27:35;7.80;99.90
11894;DHT22;6006;49.696;8.662;2024-02-23T09:30:09;7.60;99.90
11894;DHT22;6006;49.696;8.662;2024-02-23T09:32:36;7.60;99.90
11894;DHT22;6006;49.696;8.662;2024-02-23T09:35:05;7.60;99.90
11894;DHT22;6006;49.696;8.662;2024-02-23T09:37:32;7.70;99.90
11894;DHT22;6006;49.696;8.662;2024-02-23T09:39:59;7.70;99.90
11894;DHT22;6006;49.696;8.662;2024-02-23T09:42:28;7.90;99.90
11894;DHT22;6006;49.696;8.662;2024-02-23T09:44:58;7.90;99.90
11894;DHT22;6006;49.696;8.662;2024-02-23T09:47:27;8.10;99.90
11894;DHT22;6006;49.696;8.662;2024-02-23T09:49:54;8.40;99.90
11894;DHT22;6006;49.696;8.662;2024-02-23T09:52:22;8.30;99.90
11894;DHT22;6006;49.696;8.662;2024-02-23T09:54:49;8.40;99.90
11894;DHT22;6006;49.696;8.662;2024-02-23T09:57:16;8.30;99.90
11894;DHT22;6006;49.696;8.662;2024-02-23T09:59:44;8.30;99.90
11894;DHT22;6006;49.696;8.662;2024-02-23T10:02:15;8.20;99.90
11894;DHT22;6006;49.696;8.662;2024-02-23T10:04:43;8.10;99.90
11894;DHT22;6006;49.696;8.662;2024-02-23T10:07:12;8.40;99.90
11894;DHT22;6006;49.696;8.662;2024-02-23T10:09:42;8.50;99.90
11894;DHT22;6006;49.696;8.662;2024-02-23T10:12:09;8.30;99.90
11894;DHT22;6006;49.696;8.662;2024-02-23T10:14:36;8.40;99.90
11894;DHT22;6006;49.696;8.662;2024-02-23T10:17:03;8.10;99.90
11894;DHT22;6006;49.696;8.662;2024-02-23T10:19:29;8.10;99.90
11894;DHT22;6006;49.696;8.662;2024-02-23T10:21:56;8.10;99.90
11894;DHT22;6006;49.696;8.662;2024-02-23T10:24:23;8.20;99.90
11894;DHT22;6006;49.696;8.662;2024-02-23T10:26:52;8.40;99.90
11894;DHT22;6006;49.696;8.662;2024-02-23T10:29:20;8.50;99.90
11894;DHT22;6006;49.696;8.662;2024-02-23T10:31:47;8.80;99.90
11894;DHT22;6006;49.696;8.662;2024-02-23T10:34:18;8.80;99.90
11894;DHT22;6006;49.696;8.662;2024-02-23T10:36:46;9.00;99.90
11894;DHT22;6006;49.696;8.662;2024-02-23T10:39:16;9.20;99.90
11894;DHT22;6006;49.696;8.662;2024-02-23T10:41:46;9.10;99.90
11894;DHT22;6006;49.696;8.662;2024-02-23T10:44:16;9.00;99.90
11894;DHT22;6006;49.696;8.662;2024-02-23T10:46:44;9.20;99.90
11894;DHT22;6006;49.696;8.662;2024-02-23T10:49:13;9.50;99.90
11894;DHT22;6006;49.696;8.662;2024-02-23T10:51:41;9.20;99.90
11894;DHT22;6006;49.696;8.662;2024-02-23T10:54:10;9.30;99.90
11894;DHT22;6006;49.696;8.662;2024-02-23T10:56:38;9.40;99.90
11894;DHT22;6006;49.696;8.662;2024-02-23T10:59:08;9.40;99.90
11894;DHT22;6006;49.696;8.662;2024-02-23T11:01:36;9.30;99.90
11894;DHT22;6006;49.696;8.662;2024-02-23T11:04:06;9.30;99.90
11894;DHT22;6006;49.696;8.662;2024-02-23T11:06:35;9.50;99.90
11894;DHT22;6006;49.696;8.662;2024-02-23T11:09:05;9.60;99.90
11894;DHT22;6006;49.696;8.662;2024-02-23T11:11:33;9.60;99.90
11894;DHT22;6006;49.696;8.662;2024-02-23T11:14:02;9.30;99.90
11894;DHT22;6006;49.696;8.662;2024-02-23T11:16:31;9.10;99.90
11894;DHT22;6006;49.696;8.662;2024-02-23T11:19:06;9.30;99.90
11894;DHT22;6006;49.696;8.662;2024-02-23T11:21:34;9.60;99.90
11894;DHT22;6006;49.696;8.662;2024-02-23T11:24:03;9.30;99.90
11894;DHT22;6006;49.696;8.662;2024-02-23T11:26:30;9.50;99.90
11894;DHT22;6006;49.696;8.662;2024-02-23T11:28:59;9.40;99.90
11894;DHT22;6006;49.696;8.662;2024-02-23T11:31:35;9.30;99.90
11894;DHT22;6006;49.696;8.662;2024-02-23T11:34:09;9.40;99.90
11894;DHT22;6006;49.696;8.662;2024-02-23T11:36:38;9.60;99.90
11894;DHT22;6006;49.696;8.662;2024-02-23T11:39:05;9.60;99.90
11894;DHT22;6006;49.696;8.662;2024-02-23T11:41:32;9.70;99.90
11894;DHT22;6006;49.696;8.662;2024-02-23T11:43:59;9.90;99.90
11894;DHT22;6006;49.696;8.662;2024-02-23T11:46:26;9.90;99.90
11894;DHT22;6006;49.696;8.662;2024-02-23T11:48:53;9.60;99.90
11894;DHT22;6006;49.696;8.662;2024-02-23T11:51:22;9.60;99.90
11894;DHT22;6006;49.696;8.662;2024-02-23T11:53:52;9.60;99.90
11894;DHT22;6006;49.696;8.662;2024-02-23T11:56:22;9.50;99.90
11894;DHT22;6006;49.696;8.662;2024-02-23T11:58:49;9.70;99.90
11894;DHT22;6006;49.696;8.662;2024-02-23T12:01:16;10.00;99.90
11894;DHT22;6006;49.696;8.662;2024-02-23T12:03:43;10.20;99.90
11894;DHT22;6006;49.696;8.662;2024-02-23T12:06:11;9.90;99.90
11894;DHT22;6006;49.696;8.662;2024-02-23T12:08:42;9.90;99.90
11894;DHT22;6006;49.696;8.662;2024-02-23T12:11:11;9.60;99.90
11894;DHT22;6006;49.696;8.662;2024-02-23T12:13:39;9.40;99.90
11894;DHT22;6006;49.696;8.662;2024-02-23T12:16:07;9.40;99.90
11894;DHT22;6006;49.696;8.662;2024-02-23T12:18:35;9.80;99.90
11894;DHT22;6006;49.696;8.662;2024-02-23T12:21:04;10.00;99.90
11894;DHT22;6006;49.696;8.662;2024-02-23T12:23:41;10.00;99.90
11894;DHT22;6006;49.696;8.662;2024-02-23T12:26:09;10.20;99.90
11894;DHT22;6006;49.696;8.662;2024-02-23T12:28:36;10.20;99.90
11894;DHT22;6006;49.696;8.662;2024-02-23T12:31:04;9.50;99.90
11894;DHT22;6006;49.696;8.662;2024-02-23T12:33:32;9.20;99.90
11894;DHT22;6006;49.696;8.662;2024-02-23T12:36:00;9.30;99.90
11894;DHT22;6006;49.696;8.662;2024-02-23T12:38:27;9.30;99.90
11894;DHT22;6006;49.696;8.662;2024-02-23T12:40:56;9.40;99.90
11894;DHT22;6006;49.696;8.662;2024-02-23T12:43:23;9.40;99.90
11894;DHT22;6006;49.696;8.662;2024-02-23T12:45:50;9.50;99.90
11894;DHT22;6006;49.696;8.662;2024-02-23T12:48:18;10.20;99.90
11894;DHT22;6006;49.696;8.662;2024-02-23T12:50:45;10.80;99.90
11894;DHT22;6006;49.696;8.662;2024-02-23T12:53:30;10.80;99.90
11894;DHT22;6006;49.696;8.662;2024-02-23T12:56:00;10.90;99.90
11894;DHT22;6006;49.696;8.662;2024-02-23T12:58:27;11.10;99.90
11894;DHT22;6006;49.696;8.662;2024-02-23T13:00:55;11.40;99.90
11894;DHT22;6006;49.696;8.662;2024-02-23T13:03:22;11.20;99.90
11894;DHT22;6006;49.696;8.662;2024-02-23T13:05:49;10.90;99.90
11894;DHT22;6006;49.696;8.662;2024-02-23T13:08:16;11.00;99.90
11894;DHT22;6006;49.696;8.662;2024-02-23T13:10:43;11.20;99.90
11894;DHT22;6006;49.696;8.662;2024-02-23T13:13:12;12.10;99.90
11894;DHT22;6006;49.696;8.662;2024-02-23T13:15:40;12.30;99.90
11894;DHT22;6006;49.696;8.662;2024-02-23T13:18:07;12.00;99.90
11894;DHT22;6006;49.696;8.662;2024-02-23T13:20:35;12.00;99.90
11894;DHT22;6006;49.696;8.662;2024-02-23T13:23:02;12.90;99.90
11894;DHT22;6006;49.696;8.662;2024-02-23T13:25:28;13.30;99.90
11894;DHT22;6006;49.696;8.662;2024-02-23T13:27:56;13.50;99.90
11894;DHT22;6006;49.696;8.662;2024-02-23T13:30:24;13.40;99.90
11894;DHT22;6006;49.696;8.662;2024-02-23T13:32:52;12.80;99.90
11894;DHT22;6006;49.696;8.662;2024-02-23T13:35:19;12.20;99.90
11894;DHT22;6006;49.696;8.662;2024-02-23T13:37:46;11.60;99.90
11894;DHT22;6006;49.696;8.662;2024-02-23T13:40:13;10.90;99.90
11894;DHT22;6006;49.696;8.662;2024-02-23T13:42:40;10.90;99.90
11894;DHT22;6006;49.696;8.662;2024-02-23T13:45:08;10.30;99.90
11894;DHT22;6006;49.696;8.662;2024-02-23T13:47:36;10.20;99.90
11894;DHT22;6006;49.696;8.662;2024-02-23T13:50:03;10.00;99.90
11894;DHT22;6006;49.696;8.662;2024-02-23T13:52:30;9.80;99.90
11894;DHT22;6006;49.696;8.662;2024-02-23T13:54:57;10.10;99.90
11894;DHT22;6006;49.696;8.662;2024-02-23T13:57:24;10.20;99.90
11894;DHT22;6006;49.696;8.662;2024-02-23T13:59:51;10.30;99.90
11894;DHT22;6006;49.696;8.662;2024-02-23T14:02:25;10.10;99.90
11894;DHT22;6006;49.696;8.662;2024-02-23T14:04:53;9.80;99.90
11894;DHT22;6006;49.696;8.662;2024-02-23T14:07:21;9.80;99.90
11894;DHT22;6006;49.696;8.662;2024-02-23T14:09:48;10.00;99.90
11894;DHT22;6006;49.696;8.662;2024-02-23T14:12:15;10.00;99.90
11894;DHT22;6006;49.696;8.662;2024-02-23T14:14:43;9.90;99.90
11894;DHT22;6006;49.696;8.662;2024-02-23T14:17:10;9.60;99.90
11894;DHT22;6006;49.696;8.662;2024-02-23T14:19:36;9.50;99.90
11894;DHT22;6006;49.696;8.662;2024-02-23T14:22:06;9.30;99.90
11894;DHT22;6006;49.696;8.662;2024-02-23T14:24:33;9.20;99.90
11894;DHT22;6006;49.696;8.662;2024-02-23T14:27:00;9.00;99.90
11894;DHT22;6006;49.696;8.662;2024-02-23T14:29:27;8.90;99.90
11894;DHT22;6006;49.696;8.662;2024-02-23T14:31:53;8.90;99.90
11894;DHT22;6006;49.696;8.662;2024-02-23T14:34:20;8.90;99.90
11894;DHT22;6006;49.696;8.662;2024-02-23T14:36:49;8.80;99.90
11894;DHT22;6006;49.696;8.662;2024-02-23T14:39:18;8.40;99.90
11894;DHT22;6006;49.696;8.662;2024-02-23T14:41:46;8.30;99.90
11894;DHT22;6006;49.696;8.662;2024-02-23T14:44:13;8.10;99.90
11894;DHT22;6006;49.696;8.662;2024-02-23T14:46:40;8.20;99.90
11894;DHT22;6006;49.696;8.662;2024-02-23T14:49:07;8.20;99.90
11894;DHT22;6006;49.696;8.662;2024-02-23T14:51:36;8.30;99.90
11894;DHT22;6006;49.696;8.662;2024-02-23T14:54:03;8.60;99.90
11894;DHT22;6006;49.696;8.662;2024-02-23T14:56:31;8.60;99.90
11894;DHT22;6006;49.696;8.662;2024-02-23T14:58:59;9.20;99.90
11894;DHT22;6006;49.696;8.662;2024-02-23T15:01:26;9.30;99.90
11894;DHT22;6006;49.696;8.662;2024-02-23T15:03:53;9.80;99.90
11894;DHT22;6006;49.696;8.662;2024-02-23T15:06:20;9.90;99.90
11894;DHT22;6006;49.696;8.662;2024-02-23T15:08:48;10.10;99.90
11894;DHT22;6006;49.696;8.662;2024-02-23T15:11:15;10.40;99.90
11894;DHT22;6006;49.696;8.662;2024-02-23T15:13:43;10.30;99.90
11894;DHT22;6006;49.696;8.662;2024-02-23T15:16:10;10.60;99.90
11894;DHT22;6006;49.696;8.662;2024-02-23T15:18:37;10.50;99.90
11894;DHT22;6006;49.696;8.662;2024-02-23T15:21:04;10.10;99.90
11894;DHT22;6006;49.696;8.662;2024-02-23T15:23:31;9.80;99.90
11894;DHT22;6006;49.696;8.662;2024-02-23T15:25:58;9.70;99.90
11894;DHT22;6006;49.696;8.662;2024-02-23T15:28:24;9.50;99.90
11894;DHT22;6006;49.696;8.662;2024-02-23T15:30:53;9.30;99.90
11894;DHT22;6006;49.696;8.662;2024-02-23T15:33:20;9.30;99.90
11894;DHT22;6006;49.696;8.662;2024-02-23T15:35:47;9.00;99.90
11894;DHT22;6006;49.696;8.662;2024-02-23T15:38:14;9.30;99.90
11894;DHT22;6006;49.696;8.662;2024-02-23T15:40:41;9.60;99.90
11894;DHT22;6006;49.696;8.662;2024-02-23T15:43:08;10.00;99.90
11894;DHT22;6006;49.696;8.662;2024-02-23T15:45:35;10.30;99.90
11894;DHT22;6006;49.696;8.662;2024-02-23T15:48:03;10.50;99.90
11894;DHT22;6006;49.696;8.662;2024-02-23T15:50:30;10.50;99.90
11894;DHT22;6006;49.696;8.662;2024-02-23T15:52:57;10.00;99.90
11894;DHT22;6006;49.696;8.662;2024-02-23T15:55:24;9.60;99.90
11894;DHT22;6006;49.696;8.662;2024-02-23T15:57:51;9.60;99.90
11894;DHT22;6006;49.696;8.662;2024-02-23T16:00:19;9.60;99.90
11894;DHT22;6006;49.696;8.662;2024-02-23T16:02:45;9.70;99.90
11894;DHT22;6006;49.696;8.662;2024-02-23T16:05:14;9.50;99.90